Home > Products > Valid Products > TAF

000
FTUS44 KEWX 302330
TAFAUS
TAF
KAUS 302330Z 3100/0106 19006KT P6SM FEW070 BKN250
     FM310300 17006KT P6SM SCT050 BKN150
     FM312000 16009KT P6SM FEW060 SCT250=



000
FTUS44 KEWX 302330
TAFSAT
TAF
KSAT 302330Z 3100/0106 10010KT P6SM FEW070 SCT250
     FM310700 17006KT P6SM SCT015 BKN035
     FM311900 15010KT P6SM FEW060 SCT250=



000
FTUS44 KEWX 302330
TAFDRT
TAF
KDRT 302330Z 3100/3124 10008KT P6SM SCT120 BKN250
     FM311300 13007KT P6SM BKN020
     FM311500 14010KT P6SM FEW070 SCT250=



000
FTUS44 KEWX 302330
TAFAUS
TAF
KAUS 302330Z 3100/0106 19006KT P6SM FEW070 BKN250
     FM310300 17006KT P6SM SCT050 BKN150
     FM312000 16009KT P6SM FEW060 SCT250=



000
FTUS44 KEWX 302330
TAFDRT
TAF
KDRT 302330Z 3100/3124 10008KT P6SM SCT120 BKN250
     FM311300 13007KT P6SM BKN020
     FM311500 14010KT P6SM FEW070 SCT250=



000
FTUS44 KEWX 302330
TAFSAT
TAF
KSAT 302330Z 3100/0106 10010KT P6SM FEW070 SCT250
     FM310700 17006KT P6SM SCT015 BKN035
     FM311900 15010KT P6SM FEW060 SCT250=



000
FTUS44 KEWX 301720
TAFSAT
TAF
KSAT 301720Z 3018/3124 11005KT P6SM SCT100
     FM310900 18006KT P6SM SCT015 BKN035
     FM311600 16008KT P6SM BKN250=



000
FTUS44 KEWX 301720
TAFAUS
TAF
KAUS 301720Z 3018/3124 20004KT P6SM FEW100 OVC250
     FM302100 17010KT P6SM VCSH BKN100
     FM310300 17006KT P6SM SCT050 BKN150=



000
FTUS44 KEWX 301720
TAFDRT
TAF
KDRT 301720Z 3018/3118 15010KT P6SM BKN120
     FM302000 13012KT P6SM VCSH BKN100
     FM310100 12007KT P6SM SCT120
     FM311400 13007KT P6SM BKN025=



000
FTUS44 KEWX 301126
TAFSAT
TAF
KSAT 301126Z 3012/3118 19005KT P6SM FEW070 BKN150
     FM310900 18006KT P6SM SCT015 BKN025=



000
FTUS44 KEWX 301126
TAFAUS
TAF
KAUS 301126Z 3012/3118 20004KT P6SM BKN080 OVC150
     FM301800 17010KT P6SM VCSH BKN150
     FM310200 17006KT P6SM SCT050 BKN150=



000
FTUS44 KEWX 301126
TAFDRT
TAF
KDRT 301126Z 3012/3112 11010KT P6SM BKN120
     FM302000 13012KT P6SM BKN250=



000
FTUS44 KEWX 301126
TAFDRT
TAF
KDRT 301126Z 3012/3112 11010KT P6SM BKN120
     FM302000 13012KT P6SM BKN250=



000
FTUS44 KEWX 301126
TAFSAT
TAF
KSAT 301126Z 3012/3118 19005KT P6SM FEW070 BKN150
     FM310900 18006KT P6SM SCT015 BKN025=



000
FTUS44 KEWX 301126
TAFAUS
TAF
KAUS 301126Z 3012/3118 20004KT P6SM BKN080 OVC150
     FM301800 17010KT P6SM VCSH BKN150
     FM310200 17006KT P6SM SCT050 BKN150=



000
FTUS44 KEWX 300534
TAFSAT
TAF
KSAT 300534Z 3006/3112 15008KT P6SM BKN200
     FM301100 19005KT P6SM SCT025 SCT070 BKN150
     FM301500 18010KT P6SM BKN150=



000
FTUS44 KEWX 300534
TAFDRT
TAF
KDRT 300534Z 3006/3106 11010KT P6SM SCT120
     FM301300 10006KT P6SM SCT020 BKN130
     FM302000 13012KT P6SM BKN250=



000
FTUS44 KEWX 300534
TAFAUS
TAF
KAUS 300534Z 3006/3112 16008KT P6SM BKN150 OVC250
     FM300900 20004KT P6SM SCT020 BKN080
     FM301800 17010KT P6SM BKN150=



000
FTUS44 KEWX 292334
TAFAUS
TAF
KAUS 292334Z 3000/3106 14005KT P6SM SCT150 BKN250
     FM300600 VRB03KT P6SM SCT250
     FM301800 17010KT P6SM BKN250=



000
FTUS44 KEWX 292334
TAFSAT
TAF
KSAT 292334Z 3000/3106 14005KT P6SM SCT150 BKN250
     FM300600 VRB03KT P6SM SCT250
     FM301800 12010KT P6SM BKN250=



000
FTUS44 KEWX 292334
TAFDRT
TAF
KDRT 292334Z 3000/3024 13005KT P6SM BKN150
     FM300300 11010KT P6SM BKN150
     FM301600 14010KT P6SM BKN250=



000
FTUS44 KEWX 292334
TAFAUS
TAF
KAUS 292334Z 3000/3106 14005KT P6SM SCT150 BKN250
     FM300600 VRB03KT P6SM SCT250
     FM301800 17010KT P6SM BKN250=



000
FTUS44 KEWX 292334
TAFSAT
TAF
KSAT 292334Z 3000/3106 14005KT P6SM SCT150 BKN250
     FM300600 VRB03KT P6SM SCT250
     FM301800 12010KT P6SM BKN250=



000
FTUS44 KEWX 291720
TAFAUS
TAF
KAUS 291720Z 2918/3024 20006KT P6SM SCT200
     FM292200 16008KT P6SM BKN150=



000
FTUS44 KEWX 291720
TAFSAT
TAF
KSAT 291720Z 2918/3024 16010KT P6SM FEW030
     FM292300 19011KT P6SM BKN150=



000
FTUS44 KEWX 291720
TAFDRT
TAF
KDRT 291720Z 2918/3018 13009KT P6SM BKN150=



000
FTUS44 KEWX 291126
TAFDRT
TAF
KDRT 291126Z 2912/3012 11008KT P6SM SCT120
     FM291500 15011KT P6SM BKN250=



000
FTUS44 KEWX 291126
TAFSAT
TAF
KSAT 291126Z 2912/3018 16010KT P6SM FEW250
     FM291900 19011KT P6SM BKN150=



000
FTUS44 KEWX 291126
TAFAUS
TAF
KAUS 291126Z 2912/3018 20006KT P6SM SCT200
     FM291700 16008KT P6SM BKN150=



000
FTUS44 KEWX 290526
TAFAUS
TAF
KAUS 290526Z 2906/3012 20006KT P6SM SCT200
     FM291700 16008KT P6SM BKN150=



000
FTUS44 KEWX 290526
TAFDRT
TAF
KDRT 290526Z 2906/3006 11008KT P6SM SCT120
     FM291500 15011KT P6SM BKN250=



000
FTUS44 KEWX 290526
TAFSAT
TAF
KSAT 290526Z 2906/3012 16010KT P6SM FEW012 FEW250
     FM291900 19011KT P6SM BKN150=



000
FTUS44 KEWX 290526
TAFDRT
TAF
KDRT 290526Z 2906/3006 11008KT P6SM SCT120
     FM291500 15011KT P6SM BKN250=



000
FTUS44 KEWX 290526
TAFAUS
TAF
KAUS 290526Z 2906/3012 20006KT P6SM SCT200
     FM291700 16008KT P6SM BKN150=



000
FTUS44 KEWX 290526
TAFSAT
TAF
KSAT 290526Z 2906/3012 16010KT P6SM FEW012 FEW250
     FM291900 19011KT P6SM BKN150=



000
FTUS44 KEWX 282323
TAFSAT
TAF
KSAT 282323Z 2900/3006 16010KT P6SM FEW250
     FM290900 20006KT P6SM FEW250
      TEMPO 2910/2914 FEW012 FEW250
     FM291800 14006KT P6SM SCT250
     FM300100 15010KT P6SM BKN200=



000
FTUS44 KEWX 282323
TAFAUS
TAF
KAUS 282323Z 2900/3006 15006KT P6SM FEW250
     FM290600 20006KT P6SM FEW250
     FM291900 16008KT P6SM SCT250
     FM300100 17007KT P6SM BKN150=



000
FTUS44 KEWX 282323
TAFSAT
TAF
KSAT 282323Z 2900/3006 16010KT P6SM FEW250
     FM290900 20006KT P6SM FEW250
      TEMPO 2910/2914 FEW012 FEW250
     FM291800 14006KT P6SM SCT250
     FM300100 15010KT P6SM BKN200=



000
FTUS44 KEWX 282323
TAFAUS
TAF
KAUS 282323Z 2900/3006 15006KT P6SM FEW250
     FM290600 20006KT P6SM FEW250
     FM291900 16008KT P6SM SCT250
     FM300100 17007KT P6SM BKN150=



000
FTUS44 KEWX 282323
TAFDRT
TAF
KDRT 282323Z 2900/2924 15011KT P6SM FEW250
     FM290100 11008KT P6SM SCT250
     FM291600 14010KT P6SM SCT250=



000
FTUS44 KEWX 282323
TAFDRT
TAF
KDRT 282323Z 2900/2924 15011KT P6SM FEW250
     FM290100 11008KT P6SM SCT250
     FM291600 14010KT P6SM SCT250=



000
FTUS44 KEWX 281725
TAFDRT
TAF
KDRT 281725Z 2818/2918 15010KT P6SM SKC
     FM290600 11008KT P6SM SCT250
     FM291600 15008KT P6SM SKC=



000
FTUS44 KEWX 281725
TAFSAT
TAF
KSAT 281725Z 2818/2924 18008KT P6SM FEW250
     FM290000 15008KT P6SM FEW250
     FM291000 19006KT P6SM FEW250
     FM291800 15005KT P6SM FEW250=



000
FTUS44 KEWX 281725
TAFAUS
TAF
KAUS 281725Z 2818/2924 19007KT P6SM FEW200
     FM282100 15007KT P6SM FEW070
     FM290600 20005KT P6SM FEW250
     FM291800 16006KT P6SM SCT250=



000
FTUS44 KEWX 281725
TAFAUS
TAF
KAUS 281725Z 2818/2924 19007KT P6SM FEW200
     FM282100 15007KT P6SM FEW070
     FM290600 20005KT P6SM FEW250
     FM291800 16006KT P6SM SCT250=



000
FTUS44 KEWX 281725
TAFDRT
TAF
KDRT 281725Z 2818/2918 15010KT P6SM SKC
     FM290600 11008KT P6SM SCT250
     FM291600 15008KT P6SM SKC=



000
FTUS44 KEWX 281725
TAFSAT
TAF
KSAT 281725Z 2818/2924 18008KT P6SM FEW250
     FM290000 15008KT P6SM FEW250
     FM291000 19006KT P6SM FEW250
     FM291800 15005KT P6SM FEW250=



000
FTUS44 KEWX 281120
TAFSAT
TAF
KSAT 281120Z 2812/2918 23006KT P6SM SCT250
     FM282100 15009KT P6SM FEW070
     FM290800 20005KT P6SM FEW015=



000
FTUS44 KEWX 281120
TAFSAT
TAF
KSAT 281120Z 2812/2918 23006KT P6SM SCT250
     FM282100 15009KT P6SM FEW070
     FM290800 20005KT P6SM FEW015=



000
FTUS44 KEWX 281120
TAFAUS
TAF
KAUS 281120Z 2812/2918 22006KT P6SM SCT250
     FM282100 14007KT P6SM FEW070
     FM290600 20005KT P6SM FEW250=



000
FTUS44 KEWX 281120
TAFAUS
TAF
KAUS 281120Z 2812/2918 22006KT P6SM SCT250
     FM282100 14007KT P6SM FEW070
     FM290600 20005KT P6SM FEW250=



000
FTUS44 KEWX 281120
TAFDRT
TAF
KDRT 281120Z 2812/2912 10008KT P6SM SCT250
     FM281600 15013KT P6SM SCT250
     FM290200 11010KT P6SM SCT250=



000
FTUS44 KEWX 281120
TAFDRT
TAF
KDRT 281120Z 2812/2912 10008KT P6SM SCT250
     FM281600 15013KT P6SM SCT250
     FM290200 11010KT P6SM SCT250=



000
FTUS44 KEWX 280520
TAFDRT
TAF
KDRT 280520Z 2806/2906 12007KT P6SM FEW250
     FM281500 16012KT P6SM FEW250=



000
FTUS44 KEWX 280520
TAFAUS
TAF
KAUS 280520Z 2806/2912 21005KT P6SM FEW250
     FM282100 15007KT P6SM FEW070
     FM290600 20004KT P6SM FEW250=



000
FTUS44 KEWX 280520
TAFSAT
TAF
KSAT 280520Z 2806/2912 21005KT P6SM FEW250
     FM282100 15010KT P6SM FEW070
     FM290700 19006KT P6SM FEW015=



000
FTUS44 KEWX 280520
TAFAUS
TAF
KAUS 280520Z 2806/2912 21005KT P6SM FEW250
     FM282100 15007KT P6SM FEW070
     FM290600 20004KT P6SM FEW250=



000
FTUS44 KEWX 280520
TAFDRT
TAF
KDRT 280520Z 2806/2906 12007KT P6SM FEW250
     FM281500 16012KT P6SM FEW250=



000
FTUS44 KEWX 280520
TAFSAT
TAF
KSAT 280520Z 2806/2912 21005KT P6SM FEW250
     FM282100 15010KT P6SM FEW070
     FM290700 19006KT P6SM FEW015=



    US Dept of Commerce
    National Oceanic and Atmospheric Administration
    National Weather Service
    1325 East West Highway
    Silver Spring, MD 20910
    Page Author: NWS Internet Services Team
Disclaimer
Information Quality
Credits
Glossary
Privacy Policy
Freedom of Information Act (FOIA)
About Us
Career Opportunities